Time;durP1;ratioP1;P1;durP2;ratioP2;P2;SDS_P1;SDS_P2;PMS_P1;PMS_P2;Temp;Humidity;BMP_temperature;BMP_pressure;BME280_temperature;BME280_humidity;BME280_pressure;Samples;Min_cycle;Max_cycle;Signal;HPM_P1;HPM_P2
2021/03/08 00:00:34;;;;;;;2.03;1.10;;;-2.60;94.70;;;;;;5005327;28;20228;-71
2021/03/08 00:03:01;;;;;;;1.23;1.05;;;-2.50;94.50;;;;;;5007658;28;20223;-71
2021/03/08 00:05:27;;;;;;;4.10;1.23;;;-2.80;95.60;;;;;;5003853;28;20217;-73
2021/03/08 00:07:53;;;;;;;1.45;1.05;;;-3.00;95.70;;;;;;5002814;28;20598;-73
2021/03/08 00:10:20;;;;;;;2.05;1.15;;;-3.10;96.20;;;;;;5000510;28;20194;-71
2021/03/08 00:12:47;;;;;;;1.25;1.17;;;-3.20;96.20;;;;;;5004967;28;20198;-71
2021/03/08 00:15:14;;;;;;;1.10;1.00;;;-3.30;96.70;;;;;;5016482;28;20207;-72
2021/03/08 00:17:40;;;;;;;2.28;1.10;;;-3.50;97.20;;;;;;5002124;28;20599;-71
2021/03/08 00:20:08;;;;;;;2.58;1.10;;;-3.60;97.70;;;;;;5001646;28;20306;-72
2021/03/08 00:22:35;;;;;;;1.10;1.00;;;-3.50;98.40;;;;;;5001957;28;20301;-72
2021/03/08 00:25:01;;;;;;;1.35;1.15;;;-3.60;99.20;;;;;;4996413;28;20206;-72
2021/03/08 00:27:26;;;;;;;1.88;1.00;;;-3.70;99.90;;;;;;5002959;28;20264;-70
2021/03/08 00:29:52;;;;;;;4.32;1.10;;;-3.60;99.50;;;;;;5001177;28;20217;-70
2021/03/08 00:32:18;;;;;;;1.10;1.00;;;-3.50;99.80;;;;;;5003109;28;20194;-71
2021/03/08 00:34:43;;;;;;;2.25;1.10;;;-3.50;99.70;;;;;;5003033;28;20223;-71
2021/03/08 00:37:09;;;;;;;4.03;1.00;;;-3.60;99.90;;;;;;5003478;28;20209;-70
2021/03/08 00:39:35;;;;;;;4.35;1.10;;;-3.50;99.90;;;;;;5001331;28;20207;-70
2021/03/08 00:42:00;;;;;;;3.03;1.20;;;-3.40;99.90;;;;;;4987280;28;20203;-71
2021/03/08 00:44:26;;;;;;;2.15;1.10;;;-3.40;99.90;;;;;;5001746;28;20195;-70
2021/03/08 00:46:53;;;;;;;2.08;1.10;;;-3.30;99.90;;;;;;5004769;28;20198;-71
2021/03/08 00:49:18;;;;;;;1.88;1.13;;;-3.40;99.90;;;;;;5005297;28;20289;-72
2021/03/08 00:51:44;;;;;;;1.15;0.93;;;-3.50;99.90;;;;;;5003459;28;20983;-69
2021/03/08 00:54:10;;;;;;;1.23;1.10;;;-3.60;99.90;;;;;;5002974;28;20203;-71
2021/03/08 00:56:36;;;;;;;3.13;1.20;;;-3.70;99.90;;;;;;5003563;28;20226;-70
2021/03/08 00:59:02;;;;;;;3.65;1.10;;;-3.70;99.90;;;;;;4997101;28;20310;-71
2021/03/08 01:01:27;;;;;;;1.67;1.02;;;-3.60;99.90;;;;;;5010091;28;21007;-72
2021/03/08 01:03:53;;;;;;;1.30;1.00;;;-3.60;99.90;;;;;;5022081;28;20202;-70
2021/03/08 01:06:19;;;;;;;4.20;1.10;;;-3.60;99.90;;;;;;5024973;28;20194;-70
2021/03/08 01:08:45;;;;;;;1.73;1.10;;;-3.50;99.90;;;;;;5017922;28;20209;-70
2021/03/08 01:11:10;;;;;;;5.82;1.10;;;-3.50;99.90;;;;;;5021873;28;20338;-73
2021/03/08 01:13:36;;;;;;;1.30;1.03;;;-3.40;99.90;;;;;;5022899;28;20206;-71
2021/03/08 01:16:02;;;;;;;5.00;1.30;;;-3.30;99.90;;;;;;5005498;28;20190;-70
2021/03/08 01:18:28;;;;;;;4.93;1.10;;;-3.30;99.90;;;;;;5021194;28;20217;-70
2021/03/08 01:20:54;;;;;;;7.03;1.25;;;-3.20;99.90;;;;;;5006876;28;20256;-69
2021/03/08 01:23:19;;;;;;;2.80;1.27;;;-3.20;99.90;;;;;;5020007;28;20194;-71
2021/03/08 01:25:45;;;;;;;1.20;1.10;;;-3.20;99.90;;;;;;5021305;28;20203;-71
2021/03/08 01:28:11;;;;;;;1.13;1.00;;;-3.10;99.90;;;;;;5024637;28;20214;-69
2021/03/08 01:30:39;;;;;;;1.30;1.20;;;-3.00;99.90;;;;;;5013835;28;20201;-70
2021/03/08 01:33:06;;;;;;;1.42;1.10;;;-3.00;99.90;;;;;;5019298;28;20286;-70
2021/03/08 01:35:32;;;;;;;3.85;1.15;;;-2.90;99.90;;;;;;5020880;28;20205;-70
2021/03/08 01:37:58;;;;;;;5.43;1.25;;;-2.90;99.90;;;;;;5006344;28;20249;-71
2021/03/08 01:40:26;;;;;;;1.90;1.10;;;-2.90;99.90;;;;;;5020336;28;20556;-70
2021/03/08 01:42:52;;;;;;;1.15;0.93;;;-2.90;99.90;;;;;;5021969;28;20195;-70
2021/03/08 01:45:20;;;;;;;4.10;1.30;;;-2.90;99.90;;;;;;5021161;28;20263;-70
2021/03/08 01:47:47;;;;;;;3.13;1.38;;;-2.80;99.90;;;;;;5026672;28;20202;-70
2021/03/08 01:50:33;;;;;;;1.95;0.93;;;-2.80;99.90;;;;;;5026332;28;20190;-70
2021/03/08 01:53:00;;;;;;;1.80;1.10;;;-2.80;99.90;;;;;;5026492;28;20256;-70
2021/03/08 01:55:27;;;;;;;1.80;0.95;;;-2.80;99.90;;;;;;5026485;28;20194;-70
2021/03/08 01:57:53;;;;;;;1.63;1.17;;;-2.80;99.90;;;;;;5025128;28;20195;-72
2021/03/08 02:00:20;;;;;;;3.85;1.20;;;-2.90;99.90;;;;;;5026471;28;20204;-70
2021/03/08 02:02:46;;;;;;;1.27;1.17;;;-3.00;99.90;;;;;;5027225;28;20280;-70
2021/03/08 02:05:17;;;;;;;2.45;1.00;;;-3.00;99.90;;;;;;5026373;28;20199;-71
2021/03/08 02:07:42;;;;;;;1.25;1.00;;;-3.10;99.90;;;;;;5026902;28;20194;-72
2021/03/08 02:10:14;;;;;;;1.45;1.00;;;-3.20;99.90;;;;;;5006150;28;20202;-71
2021/03/08 02:12:59;;;;;;;3.60;1.10;;;-3.10;99.90;;;;;;5026544;28;20206;-70
2021/03/08 02:15:24;;;;;;;1.42;1.15;;;-3.20;99.90;;;;;;5025514;28;20248;-70
2021/03/08 02:18:09;;;;;;;3.08;1.17;;;-3.40;99.90;;;;;;5027577;28;20202;-74
2021/03/08 02:21:00;;;;;;;1.45;0.95;;;-3.50;99.90;;;;;;5026576;28;20221;-71
2021/03/08 02:23:34;;;;;;;7.60;1.35;;;-3.60;99.90;;;;;;5027569;28;20221;-70
2021/03/08 02:26:15;;;;;;;1.88;1.00;;;-3.80;99.90;;;;;;5027513;28;20193;-71
2021/03/08 02:29:06;;;;;;;1.33;1.10;;;-3.90;99.90;;;;;;5009514;28;20205;-70
2021/03/08 02:31:32;;;;;;;2.53;1.30;;;-4.10;99.90;;;;;;5002162;28;20194;-71
2021/03/08 02:33:59;;;;;;;3.83;1.30;;;-4.10;99.90;;;;;;5008826;28;20244;-72
2021/03/08 02:36:32;;;;;;;3.90;1.20;;;-4.10;99.90;;;;;;5026616;28;20667;-70
2021/03/08 02:39:08;;;;;;;2.25;1.25;;;-4.20;99.90;;;;;;5026770;28;20213;-70
2021/03/08 02:41:35;;;;;;;1.05;1.00;;;-4.20;99.90;;;;;;5026142;28;20232;-70
2021/03/08 02:44:08;;;;;;;4.60;1.13;;;-4.30;99.90;;;;;;5027326;28;20197;-71
2021/03/08 02:46:36;;;;;;;1.27;0.98;;;-4.30;99.90;;;;;;5024882;28;20301;-72
2021/03/08 02:49:06;;;;;;;6.70;1.10;;;-4.30;99.90;;;;;;5025228;28;20289;-70
2021/03/08 02:51:36;;;;;;;5.23;1.20;;;-4.40;99.90;;;;;;5009038;28;20232;-72
2021/03/08 02:54:04;;;;;;;4.05;1.25;;;-4.30;99.90;;;;;;5018156;28;20199;-70
2021/03/08 02:56:33;;;;;;;4.63;1.23;;;-4.30;99.90;;;;;;5026707;28;20722;-70
2021/03/08 02:59:02;;;;;;;1.40;1.00;;;-4.30;99.90;;;;;;5038067;28;20326;-70
2021/03/08 03:01:31;;;;;;;1.38;1.17;;;-4.20;99.90;;;;;;5022033;28;20564;-70
2021/03/08 03:03:59;;;;;;;3.72;1.10;;;-4.30;99.90;;;;;;5025823;28;20368;-70
2021/03/08 03:06:31;;;;;;;3.08;1.20;;;-4.30;99.90;;;;;;5026099;28;20205;-70
2021/03/08 03:08:58;;;;;;;3.70;1.20;;;-4.40;99.90;;;;;;5026525;28;20225;-70
2021/03/08 03:11:27;;;;;;;4.50;1.10;;;-4.50;99.90;;;;;;5025669;28;20191;-70
2021/03/08 03:13:54;;;;;;;3.35;1.20;;;-4.60;99.90;;;;;;5025983;28;20190;-71
2021/03/08 03:16:21;;;;;;;2.42;1.17;;;-4.70;99.90;;;;;;5016028;28;20198;-71
2021/03/08 03:18:53;;;;;;;1.65;1.23;;;-4.70;99.90;;;;;;5024795;28;20198;-70
2021/03/08 03:21:19;;;;;;;2.38;1.23;;;-4.80;99.90;;;;;;5024273;28;20296;-72
2021/03/08 03:23:48;;;;;;;1.30;1.08;;;-4.90;99.90;;;;;;5025669;28;20699;-70
2021/03/08 03:26:15;;;;;;;2.95;1.52;;;-4.90;99.90;;;;;;5028593;28;20945;-71
2021/03/08 03:28:42;;;;;;;3.85;1.23;;;-5.00;99.90;;;;;;5025146;28;20568;-72
2021/03/08 03:31:08;;;;;;;2.13;1.10;;;-4.90;99.90;;;;;;5016428;28;20684;-71
2021/03/08 03:33:34;;;;;;;2.08;1.05;;;-4.90;99.90;;;;;;5024100;28;20281;-70
2021/03/08 03:36:00;;;;;;;3.67;1.27;;;-4.80;99.90;;;;;;5024817;28;20190;-70
2021/03/08 03:38:27;;;;;;;1.20;1.10;;;-4.80;99.90;;;;;;5022708;28;20208;-71
2021/03/08 03:40:52;;;;;;;4.20;1.10;;;-4.80;99.90;;;;;;5024231;28;20259;-73
2021/03/08 03:43:18;;;;;;;3.72;1.20;;;-4.80;99.90;;;;;;5025183;28;20198;-71
2021/03/08 03:45:44;;;;;;;3.88;1.30;;;-4.80;99.90;;;;;;5016709;28;20336;-71
2021/03/08 03:48:10;;;;;;;2.10;1.40;;;-4.90;99.90;;;;;;5025281;28;20214;-71
2021/03/08 03:50:37;;;;;;;2.05;1.17;;;-4.90;99.90;;;;;;5025598;28;20269;-71
2021/03/08 03:53:05;;;;;;;2.75;1.10;;;-4.90;99.90;;;;;;5006822;28;20657;-71
2021/03/08 03:55:31;;;;;;;4.28;1.38;;;-4.90;99.90;;;;;;5025647;28;20200;-71
2021/03/08 03:58:11;;;;;;;1.40;1.10;;;-5.00;99.90;;;;;;5008336;28;20194;-72
2021/03/08 04:00:57;;;;;;;3.07;1.40;;;-5.00;99.90;;;;;;5008138;28;20212;-71
2021/03/08 04:03:30;;;;;;;4.63;1.05;;;-5.10;99.90;;;;;;5008967;28;20248;-72
2021/03/08 04:05:58;;;;;;;4.00;1.20;;;-5.10;99.90;;;;;;5007224;28;20194;-71
2021/03/08 04:08:25;;;;;;;3.60;1.10;;;-5.20;99.90;;;;;;5012345;28;20213;-71
2021/03/08 04:10:52;;;;;;;1.30;1.20;;;-5.30;99.90;;;;;;5024473;28;21014;-70
2021/03/08 04:13:22;;;;;;;1.30;1.20;;;-5.20;99.90;;;;;;5027930;28;20209;-71
2021/03/08 04:15:48;;;;;;;2.00;1.20;;;-5.00;99.90;;;;;;5025270;28;20680;-71
2021/03/08 04:18:15;;;;;;;2.30;1.10;;;-4.90;99.90;;;;;;5023156;28;20202;-70
2021/03/08 04:20:43;;;;;;;2.50;1.20;;;-5.00;99.90;;;;;;5015948;28;21079;-72
2021/03/08 04:23:12;;;;;;;1.33;1.20;;;-4.90;99.90;;;;;;5024568;28;20289;-70
2021/03/08 04:25:40;;;;;;;2.90;1.20;;;-4.90;99.90;;;;;;5025118;28;20672;-71
2021/03/08 04:28:07;;;;;;;1.80;1.30;;;-4.90;99.90;;;;;;5026149;28;20210;-71
2021/03/08 04:30:34;;;;;;;7.82;1.50;;;-5.10;99.90;;;;;;5014443;28;20194;-71
2021/03/08 04:33:00;;;;;;;1.77;1.20;;;-5.00;99.90;;;;;;5026147;28;20510;-70
2021/03/08 04:35:30;;;;;;;1.92;1.15;;;-5.00;99.90;;;;;;5024695;28;20236;-70
2021/03/08 04:37:58;;;;;;;5.63;1.40;;;-5.00;99.90;;;;;;5038613;28;20198;-71
2021/03/08 04:40:24;;;;;;;1.50;1.15;;;-4.90;99.90;;;;;;5022563;28;20722;-70
2021/03/08 04:42:51;;;;;;;2.10;1.20;;;-4.80;99.90;;;;;;5006324;28;20194;-69
2021/03/08 04:45:20;;;;;;;1.75;1.23;;;-4.80;99.90;;;;;;5023899;28;20281;-69
2021/03/08 04:47:46;;;;;;;4.00;1.20;;;-4.80;99.90;;;;;;5007051;28;20598;-68
2021/03/08 04:50:14;;;;;;;3.65;1.40;;;-4.90;99.90;;;;;;5024353;28;20209;-68
2021/03/08 04:52:47;;;;;;;3.70;1.30;;;-4.90;99.90;;;;;;5024384;28;20202;-69
2021/03/08 04:55:15;;;;;;;3.30;1.30;;;-4.90;99.90;;;;;;5025053;28;20319;-69
2021/03/08 04:57:42;;;;;;;1.60;1.10;;;-5.10;99.90;;;;;;5024870;28;20225;-71
2021/03/08 05:00:10;;;;;;;5.30;1.43;;;-5.20;99.90;;;;;;5022204;28;20229;-70
2021/03/08 05:02:37;;;;;;;7.17;1.50;;;-5.20;99.90;;;;;;5024978;28;20230;-69
2021/03/08 05:05:06;;;;;;;4.68;1.40;;;-5.30;99.90;;;;;;5002009;28;20206;-70
2021/03/08 05:07:35;;;;;;;3.03;1.40;;;-5.20;99.90;;;;;;5025138;28;20225;-68
2021/03/08 05:10:02;;;;;;;1.50;1.10;;;-5.20;99.90;;;;;;5023742;28;20197;-69
2021/03/08 05:12:30;;;;;;;2.63;1.10;;;-5.20;99.90;;;;;;5025749;28;20762;-69
2021/03/08 05:14:57;;;;;;;1.17;1.08;;;-5.30;99.90;;;;;;5023431;28;20194;-69
2021/03/08 05:17:24;;;;;;;3.03;1.50;;;-5.20;99.90;;;;;;5008395;28;20228;-68
2021/03/08 05:19:51;;;;;;;1.83;1.20;;;-5.20;99.90;;;;;;5008590;28;20559;-69
2021/03/08 05:22:18;;;;;;;3.80;1.10;;;-5.20;99.90;;;;;;5030666;28;20399;-69
2021/03/08 05:24:48;;;;;;;3.85;1.20;;;-5.30;99.90;;;;;;5029252;28;20202;-70
2021/03/08 05:27:15;;;;;;;3.30;1.27;;;-5.30;99.90;;;;;;5028292;28;20288;-70
2021/03/08 05:29:42;;;;;;;2.25;1.30;;;-5.40;99.90;;;;;;5028957;28;20197;-72
2021/03/08 05:32:32;;;;;;;2.63;1.40;;;-5.50;99.90;;;;;;5031074;28;20198;-68
2021/03/08 05:34:59;;;;;;;7.00;1.48;;;-5.60;99.90;;;;;;5001809;28;20201;-71
2021/03/08 05:37:26;;;;;;;4.22;1.13;;;-5.70;99.90;;;;;;5026156;28;20308;-68
2021/03/08 05:39:55;;;;;;;3.57;1.43;;;-5.80;99.90;;;;;;5028393;28;20202;-69
2021/03/08 05:42:21;;;;;;;3.28;1.38;;;-5.90;99.90;;;;;;5030617;28;20205;-70
2021/03/08 05:44:59;;;;;;;1.30;1.00;;;-5.80;99.90;;;;;;5028539;28;20540;-69
2021/03/08 05:47:52;;;;;;;2.42;1.20;;;-5.60;99.90;;;;;;5030331;28;20201;-68
2021/03/08 05:50:21;;;;;;;7.85;1.40;;;-5.40;99.90;;;;;;5029561;28;20201;-70
2021/03/08 05:53:06;;;;;;;1.90;1.40;;;-5.30;99.90;;;;;;5028663;28;20198;-69
2021/03/08 05:55:50;;;;;;;3.27;1.40;;;-5.20;99.90;;;;;;5025724;28;20701;-68
2021/03/08 05:58:36;;;;;;;1.77;1.20;;;-5.20;99.90;;;;;;5028454;28;20225;-68
2021/03/08 06:01:17;;;;;;;4.45;1.50;;;-5.20;99.90;;;;;;5028168;28;20196;-68
2021/03/08 06:04:06;;;;;;;4.28;1.35;;;-5.20;99.90;;;;;;5028347;28;20297;-71
2021/03/08 06:07:00;;;;;;;3.80;1.30;;;-5.10;99.90;;;;;;5028489;28;20280;-69
2021/03/08 06:09:27;;;;;;;6.30;1.40;;;-5.20;99.90;;;;;;5022455;28;20198;-69
2021/03/08 06:11:58;;;;;;;12.67;1.30;;;-5.20;99.90;;;;;;5025485;28;20322;-69
2021/03/08 06:14:33;;;;;;;5.80;1.30;;;-5.10;99.90;;;;;;5023142;28;20194;-70
2021/03/08 06:17:00;;;;;;;5.83;2.03;;;-5.20;99.90;;;;;;5022215;28;20248;-69
2021/03/08 06:19:27;;;;;;;8.95;1.90;;;-5.30;99.90;;;;;;5025391;28;20568;-69
2021/03/08 06:21:54;;;;;;;6.93;1.63;;;-5.30;99.90;;;;;;5009598;28;20237;-71
2021/03/08 06:24:20;;;;;;;8.13;2.05;;;-5.40;99.90;;;;;;5024970;28;20655;-70
2021/03/08 06:26:46;;;;;;;18.73;2.00;;;-5.30;99.90;;;;;;5023019;28;20305;-68
2021/03/08 06:29:12;;;;;;;7.85;1.80;;;-5.30;99.90;;;;;;5007218;28;20209;-71
2021/03/08 06:31:39;;;;;;;5.55;1.92;;;-5.30;99.90;;;;;;5024093;28;20190;-71
2021/03/08 06:34:04;;;;;;;2.23;1.70;;;-5.30;99.90;;;;;;5024597;28;20672;-69
2021/03/08 06:36:33;;;;;;;4.53;2.03;;;-5.30;99.90;;;;;;5024111;28;20194;-69
2021/03/08 06:38:59;;;;;;;5.93;1.77;;;-5.30;99.90;;;;;;5033428;28;20647;-69
2021/03/08 06:41:25;;;;;;;4.68;1.73;;;-5.20;99.90;;;;;;5025817;28;20237;-69
2021/03/08 06:43:51;;;;;;;6.55;2.40;;;-5.20;99.90;;;;;;5021124;28;20715;-69
2021/03/08 06:46:17;;;;;;;5.82;2.15;;;-5.10;99.90;;;;;;5022599;28;20554;-69
2021/03/08 06:48:43;;;;;;;5.78;2.50;;;-5.10;99.90;;;;;;5023462;28;20206;-71
2021/03/08 06:51:19;;;;;;;3.22;1.80;;;-5.10;99.90;;;;;;5026222;28;20673;-72
2021/03/08 06:53:46;;;;;;;8.15;2.03;;;-5.10;99.90;;;;;;5019964;28;20195;-69
2021/03/08 06:56:16;;;;;;;6.13;2.78;;;-5.10;99.90;;;;;;5024997;28;20647;-70
2021/03/08 06:58:44;;;;;;;2.75;1.67;;;-5.10;99.90;;;;;;5024170;28;20205;-69
2021/03/08 07:01:28;;;;;;;3.75;1.65;;;-5.00;99.90;;;;;;5024271;28;20202;-70
2021/03/08 07:03:55;;;;;;;4.25;1.95;;;-4.90;99.90;;;;;;5004401;28;20293;-69
2021/03/08 07:06:20;;;;;;;8.57;1.95;;;-4.80;99.90;;;;;;5004951;28;20203;-71
2021/03/08 07:08:47;;;;;;;6.32;2.28;;;-4.80;99.90;;;;;;4988309;28;20233;-70
2021/03/08 07:11:22;;;;;;;11.18;1.88;;;-4.70;99.90;;;;;;5006520;28;21026;-70
2021/03/08 07:13:48;;;;;;;5.32;2.00;;;-4.60;99.90;;;;;;4987545;28;20194;-71
2021/03/08 07:16:14;;;;;;;6.10;1.65;;;-4.50;99.90;;;;;;4991136;28;20281;-70
2021/03/08 07:18:41;;;;;;;6.75;1.52;;;-4.30;99.90;;;;;;5001542;28;20233;-69
2021/03/08 07:21:18;;;;;;;3.38;1.50;;;-4.10;99.90;;;;;;5001444;28;20199;-69
2021/03/08 07:23:46;;;;;;;2.70;1.30;;;-3.80;99.90;;;;;;5004797;28;20206;-69
2021/03/08 07:26:23;;;;;;;5.28;1.20;;;-3.60;99.90;;;;;;5006324;28;20242;-68
2021/03/08 07:29:11;;;;;;;2.40;1.40;;;-3.30;99.90;;;;;;5005506;28;20217;-69
2021/03/08 07:31:51;;;;;;;1.73;1.25;;;-3.10;99.90;;;;;;5002850;28;20260;-69
2021/03/08 07:34:18;;;;;;;2.95;1.20;;;-3.00;99.90;;;;;;5005674;28;20289;-70
2021/03/08 07:36:57;;;;;;;4.22;1.20;;;-2.80;99.90;;;;;;4992686;28;20218;-70
2021/03/08 07:39:24;;;;;;;1.40;1.10;;;-2.80;99.90;;;;;;5003424;28;20199;-71
2021/03/08 07:41:58;;;;;;;1.38;1.20;;;-2.60;99.90;;;;;;5005698;28;20194;-70
2021/03/08 07:44:26;;;;;;;2.55;1.08;;;-2.50;99.90;;;;;;5003059;28;20194;-71
2021/03/08 07:46:54;;;;;;;7.82;1.70;;;-2.50;99.90;;;;;;5016743;28;20214;-69
2021/03/08 07:49:40;;;;;;;5.57;1.15;;;-2.40;99.90;;;;;;5001771;28;20217;-69
2021/03/08 07:52:18;;;;;;;1.98;1.23;;;-2.30;99.90;;;;;;5000840;28;20199;-69
2021/03/08 07:55:02;;;;;;;8.50;1.45;;;-2.10;99.90;;;;;;4995653;28;20393;-70
2021/03/08 07:57:50;;;;;;;3.95;1.70;;;-2.00;99.90;;;;;;5015988;28;20205;-69
2021/03/08 08:00:16;;;;;;;1.48;1.35;;;-1.80;99.90;;;;;;4998693;28;20211;-70
2021/03/08 08:02:42;;;;;;;8.63;1.73;;;-1.70;99.90;;;;;;5002147;28;20226;-69
2021/03/08 08:05:08;;;;;;;4.53;1.73;;;-1.60;99.90;;;;;;5000442;28;20602;-70
2021/03/08 08:07:39;;;;;;;4.78;1.30;;;-1.50;99.90;;;;;;4998279;28;20209;-71
2021/03/08 08:10:06;;;;;;;5.70;1.50;;;-1.30;99.90;;;;;;4997517;28;20326;-72
2021/03/08 08:12:33;;;;;;;5.13;2.17;;;-1.10;99.90;;;;;;5002783;28;20195;-71
2021/03/08 08:15:04;;;;;;;5.00;1.30;;;-1.00;99.90;;;;;;4999324;28;20684;-70
2021/03/08 08:17:34;;;;;;;2.97;1.40;;;-0.90;99.90;;;;;;5001185;28;20282;-70
2021/03/08 08:20:03;;;;;;;7.60;1.55;;;-0.80;99.90;;;;;;5000225;28;20207;-70
2021/03/08 08:22:30;;;;;;;2.22;1.45;;;-0.70;99.90;;;;;;4981913;28;20756;-70
2021/03/08 08:24:57;;;;;;;2.05;1.10;;;-0.50;99.90;;;;;;4999309;28;20206;-70
2021/03/08 08:27:25;;;;;;;5.95;1.40;;;-0.30;99.90;;;;;;4994894;28;20243;-70
2021/03/08 08:29:51;;;;;;;4.13;1.40;;;-0.30;99.90;;;;;;4998984;28;20202;-69
2021/03/08 08:32:17;;;;;;;2.05;1.33;;;-0.20;99.90;;;;;;5000289;28;20673;-69
2021/03/08 08:34:49;;;;;;;1.98;0.93;;;-0.10;99.90;;;;;;5001276;28;20191;-71
2021/03/08 08:37:20;;;;;;;1.38;1.05;;;0.00;99.90;;;;;;4990325;28;20241;-70
2021/03/08 08:39:52;;;;;;;1.75;1.17;;;0.00;99.90;;;;;;4997064;28;20206;-70
2021/03/08 08:42:21;;;;;;;1.88;1.08;;;0.10;99.90;;;;;;4997770;28;20265;-70
2021/03/08 08:44:51;;;;;;;4.07;1.10;;;0.20;99.90;;;;;;4998634;28;20609;-71
2021/03/08 08:47:23;;;;;;;1.58;1.00;;;0.40;99.90;;;;;;4997281;28;20285;-72
2021/03/08 08:49:51;;;;;;;1.98;1.17;;;0.60;99.40;;;;;;4994130;28;20198;-71
2021/03/08 08:52:37;;;;;;;5.40;1.13;;;0.70;98.70;;;;;;4995856;28;20207;-71
2021/03/08 08:55:03;;;;;;;3.90;1.20;;;0.80;98.60;;;;;;4997279;28;20191;-72
2021/03/08 08:57:29;;;;;;;5.93;1.40;;;0.80;98.60;;;;;;5000385;28;20202;-70
2021/03/08 09:00:16;;;;;;;3.03;1.08;;;0.90;96.80;;;;;;5012092;28;20202;-71
2021/03/08 09:02:42;;;;;;;1.67;1.10;;;1.00;98.00;;;;;;4987629;28;20293;-72
2021/03/08 09:05:27;;;;;;;4.97;1.10;;;1.10;96.90;;;;;;5017535;28;20194;-72
2021/03/08 09:08:18;;;;;;;1.33;0.82;;;1.20;96.10;;;;;;5017099;28;20205;-70
2021/03/08 09:10:44;;;;;;;1.58;1.10;;;1.10;95.10;;;;;;5015431;28;20194;-70
2021/03/08 09:13:11;;;;;;;10.07;1.23;;;1.20;95.30;;;;;;5017264;28;20224;-71
2021/03/08 09:15:36;;;;;;;5.57;1.42;;;1.50;95.60;;;;;;5017519;28;20260;-70
2021/03/08 09:18:05;;;;;;;4.25;1.35;;;1.90;95.50;;;;;;5015027;28;20209;-70
2021/03/08 09:20:32;;;;;;;7.47;1.20;;;2.10;94.80;;;;;;5017267;28;20244;-71
2021/03/08 09:23:02;;;;;;;5.35;1.15;;;2.30;93.20;;;;;;5018393;28;20267;-70
2021/03/08 09:25:28;;;;;;;5.30;1.50;;;2.30;92.80;;;;;;5016505;28;20209;-70
2021/03/08 09:28:05;;;;;;;1.85;1.17;;;2.40;93.80;;;;;;5015814;28;20209;-73
2021/03/08 09:30:37;;;;;;;2.42;0.93;;;2.30;92.30;;;;;;5017247;28;20229;-71
2021/03/08 09:33:08;;;;;;;5.65;1.20;;;2.50;92.70;;;;;;5014847;28;20226;-71
2021/03/08 09:35:48;;;;;;;1.10;1.00;;;2.80;92.00;;;;;;5017659;28;20275;-72
2021/03/08 09:38:17;;;;;;;1.55;0.90;;;3.20;90.90;;;;;;5016238;28;20296;-72
2021/03/08 09:40:47;;;;;;;1.92;1.20;;;3.30;88.30;;;;;;5014650;28;20636;-71
2021/03/08 09:43:26;;;;;;;2.90;1.45;;;3.30;86.10;;;;;;5016726;28;20206;-70
2021/03/08 09:46:05;;;;;;;2.80;1.25;;;3.40;86.60;;;;;;4999119;28;20569;-71
2021/03/08 09:48:34;;;;;;;5.25;0.95;;;3.60;87.60;;;;;;5016758;28;20259;-71
2021/03/08 09:51:14;;;;;;;5.35;1.20;;;3.80;85.90;;;;;;5016659;28;20727;-71
2021/03/08 09:53:48;;;;;;;1.35;1.10;;;3.80;84.80;;;;;;5018009;28;20568;-71
2021/03/08 09:56:16;;;;;;;4.80;0.90;;;3.70;81.70;;;;;;5020998;28;20570;-74
2021/03/08 09:58:43;;;;;;;9.38;2.80;;;3.60;82.60;;;;;;5014490;28;20209;-72
2021/03/08 10:01:24;;;;;;;1.10;1.00;;;3.80;81.90;;;;;;4838523;28;5127228;-72
2021/03/08 10:03:50;;;;;;;1.77;0.82;;;4.00;78.10;;;;;;4995693;28;20231;-72
2021/03/08 10:06:30;;;;;;;6.68;3.88;;;3.90;76.30;;;;;;5001990;28;20225;-71
2021/03/08 10:08:58;;;;;;;9.60;5.55;;;4.00;78.60;;;;;;4987083;28;21089;-72
2021/03/08 10:11:29;;;;;;;9.85;3.65;;;4.30;80.80;;;;;;4999996;28;20195;-72
2021/03/08 10:13:56;;;;;;;4.15;1.20;;;4.60;78.30;;;;;;5004036;28;20288;-73
2021/03/08 10:16:27;;;;;;;2.30;0.93;;;4.90;76.00;;;;;;5001634;28;20504;-72
2021/03/08 10:18:53;;;;;;;8.82;4.20;;;4.90;73.30;;;;;;4999281;28;20400;-71
2021/03/08 10:21:20;;;;;;;7.28;1.70;;;4.80;73.50;;;;;;5004355;28;20524;-72
2021/03/08 10:23:47;;;;;;;4.13;2.47;;;4.90;74.60;;;;;;5002267;28;20559;-71
2021/03/08 10:26:15;;;;;;;3.88;1.35;;;5.10;74.20;;;;;;5005797;28;20206;-71
2021/03/08 10:28:52;;;;;;;2.20;1.17;;;5.30;74.30;;;;;;5006992;28;20238;-71
2021/03/08 10:31:20;;;;;;;2.72;1.40;;;5.50;76.90;;;;;;4997701;28;20764;-73
2021/03/08 10:33:50;;;;;;;1.85;1.00;;;5.60;76.50;;;;;;5006774;28;20205;-71
2021/03/08 10:36:20;;;;;;;4.22;1.10;;;5.60;77.70;;;;;;5005445;28;20253;-72
2021/03/08 10:38:58;;;;;;;3.75;1.10;;;5.30;76.30;;;;;;5004340;28;20248;-71
2021/03/08 10:41:27;;;;;;;3.85;1.10;;;5.40;80.30;;;;;;4996799;28;20747;-72
2021/03/08 10:43:54;;;;;;;3.35;1.10;;;5.40;77.20;;;;;;5005373;28;20230;-71
2021/03/08 10:46:21;;;;;;;4.57;1.10;;;5.50;78.60;;;;;;4995499;28;20203;-72
2021/03/08 10:49:06;;;;;;;2.45;1.00;;;5.40;77.80;;;;;;4999579;28;20206;-72
2021/03/08 10:51:33;;;;;;;0.90;0.82;;;5.90;75.50;;;;;;4975778;28;20587;-72
2021/03/08 10:54:00;;;;;;;2.55;1.05;;;5.40;74.40;;;;;;4984746;28;20294;-73
2021/03/08 10:56:28;;;;;;;2.63;1.70;;;5.70;78.50;;;;;;5002443;28;20198;-73
2021/03/08 10:58:55;;;;;;;9.75;1.35;;;6.00;73.40;;;;;;4996477;28;20226;-73
2021/03/08 11:01:21;;;;;;;2.45;1.30;;;6.10;75.80;;;;;;4998024;28;20284;-73
2021/03/08 11:03:47;;;;;;;1.83;1.15;;;6.40;77.50;;;;;;5004213;28;20199;-73
2021/03/08 11:06:15;;;;;;;2.35;1.30;;;6.80;73.30;;;;;;5002621;28;20253;-72
2021/03/08 11:09:02;;;;;;;1.63;1.00;;;6.80;69.90;;;;;;5001491;28;20213;-70
2021/03/08 11:11:32;;;;;;;1.23;1.00;;;6.60;70.00;;;;;;4983430;28;20622;-71
2021/03/08 11:14:00;;;;;;;3.33;0.95;;;6.50;70.20;;;;;;4994532;28;20195;-70
2021/03/08 11:16:27;;;;;;;1.85;0.93;;;6.30;69.40;;;;;;5001370;28;20202;-72
2021/03/08 11:19:21;;;;;;;1.40;0.93;;;6.20;71.10;;;;;;4999833;28;20195;-71
2021/03/08 11:22:04;;;;;;;1.45;0.85;;;5.80;72.50;;;;;;5007045;28;20528;-73
2021/03/08 11:24:31;;;;;;;4.15;1.10;;;5.90;72.50;;;;;;4991019;28;20560;-71
2021/03/08 11:27:17;;;;;;;5.15;1.20;;;6.20;70.40;;;;;;5002608;28;20210;-71
2021/03/08 11:30:09;;;;;;;2.45;1.17;;;6.30;68.80;;;;;;4998026;28;20222;-73
2021/03/08 11:32:36;;;;;;;1.92;1.10;;;6.40;68.30;;;;;;4996396;28;20209;-72
2021/03/08 11:35:02;;;;;;;2.15;1.00;;;6.70;65.80;;;;;;4995646;28;20199;-74
2021/03/08 11:37:30;;;;;;;1.00;0.90;;;6.50;64.80;;;;;;5001623;28;20209;-71
2021/03/08 11:39:58;;;;;;;0.85;0.80;;;6.60;62.00;;;;;;5000370;28;20199;-73
2021/03/08 11:42:26;;;;;;;1.02;0.93;;;6.50;62.90;;;;;;4999614;28;20198;-72
2021/03/08 11:44:52;;;;;;;3.35;1.20;;;6.40;60.80;;;;;;4996200;28;20282;-72
2021/03/08 11:47:19;;;;;;;4.60;1.25;;;6.50;57.20;;;;;;5001203;28;20693;-72
2021/03/08 11:49:45;;;;;;;2.55;1.20;;;6.00;59.80;;;;;;5001160;28;20187;-71
2021/03/08 11:52:11;;;;;;;2.65;1.05;;;6.20;63.80;;;;;;5001477;28;20221;-72
2021/03/08 11:54:36;;;;;;;1.67;0.90;;;6.50;63.50;;;;;;5000695;28;20195;-71
2021/03/08 11:57:05;;;;;;;1.02;0.85;;;6.50;62.50;;;;;;4977396;28;20217;-71
2021/03/08 11:59:31;;;;;;;1.73;0.98;;;6.70;61.70;;;;;;4997386;28;20629;-73
2021/03/08 12:01:57;;;;;;;2.20;1.10;;;6.70;61.10;;;;;;5003732;28;20237;-71
2021/03/08 12:04:23;;;;;;;3.42;1.25;;;6.80;63.20;;;;;;5018346;28;20198;-72
2021/03/08 12:06:49;;;;;;;2.40;1.25;;;7.00;61.00;;;;;;5017334;28;20242;-74
2021/03/08 12:09:15;;;;;;;3.28;1.00;;;7.30;62.60;;;;;;5006934;28;20297;-73
2021/03/08 12:11:40;;;;;;;2.85;1.10;;;6.90;59.60;;;;;;5001922;28;21018;-73
2021/03/08 12:14:07;;;;;;;2.55;0.90;;;6.50;61.00;;;;;;5019391;28;20195;-73
2021/03/08 12:16:33;;;;;;;4.10;1.20;;;6.50;61.30;;;;;;5016826;28;20305;-72
2021/03/08 12:18:59;;;;;;;2.03;1.13;;;6.80;61.30;;;;;;5019042;28;20264;-73
2021/03/08 12:21:25;;;;;;;2.05;1.00;;;6.90;59.80;;;;;;5001455;28;20198;-72
2021/03/08 12:23:52;;;;;;;2.10;1.02;;;6.80;60.40;;;;;;5017767;28;20967;-72
2021/03/08 12:26:18;;;;;;;3.38;1.20;;;7.00;64.90;;;;;;4998196;28;20224;-72
2021/03/08 12:28:44;;;;;;;3.53;1.10;;;7.10;62.20;;;;;;5012663;28;20348;-73
2021/03/08 12:31:10;;;;;;;1.30;1.00;;;7.50;65.90;;;;;;4999456;28;20605;-71
2021/03/08 12:33:38;;;;;;;1.65;1.00;;;7.70;59.90;;;;;;5018479;28;20198;-71
2021/03/08 12:36:08;;;;;;;2.65;0.90;;;7.00;61.40;;;;;;4998213;28;20194;-72
2021/03/08 12:38:34;;;;;;;2.55;1.17;;;7.20;63.80;;;;;;5015392;28;20224;-73
2021/03/08 12:41:04;;;;;;;1.50;1.05;;;7.10;62.30;;;;;;5018714;28;20248;-71
2021/03/08 12:43:30;;;;;;;2.05;1.20;;;7.10;60.30;;;;;;5018461;28;20198;-71
2021/03/08 12:45:56;;;;;;;2.90;0.90;;;7.20;59.90;;;;;;5017747;28;20556;-73
2021/03/08 12:48:21;;;;;;;4.15;1.25;;;7.10;58.00;;;;;;5016964;28;20210;-70
2021/03/08 12:50:48;;;;;;;0.98;0.88;;;7.10;61.20;;;;;;5015904;28;21021;-73
2021/03/08 12:53:14;;;;;;;6.30;1.10;;;7.00;56.20;;;;;;5017624;28;20204;-73
2021/03/08 12:55:40;;;;;;;1.08;0.90;;;6.60;57.30;;;;;;5017764;28;20202;-71
2021/03/08 12:58:06;;;;;;;1.70;0.90;;;6.40;57.90;;;;;;5000644;28;20582;-72
2021/03/08 13:00:33;;;;;;;0.80;0.80;;;6.40;58.80;;;;;;5017488;28;20710;-72
2021/03/08 13:02:59;;;;;;;2.40;1.00;;;6.70;62.00;;;;;;5020844;28;20226;-73